sensor_id;sensor_type;location;lat;lon;timestamp;P1;durP1;ratioP1;P2;durP2;ratioP2
11763;SDS011;5939;56.522;14.950;2024-02-23T00:01:41;1.20;;;1.10;;
11763;SDS011;5939;56.522;14.950;2024-02-23T00:04:06;1.20;;;1.10;;
11763;SDS011;5939;56.522;14.950;2024-02-23T00:06:33;1.60;;;1.10;;
11763;SDS011;5939;56.522;14.950;2024-02-23T00:08:59;2.07;;;1.27;;
11763;SDS011;5939;56.522;14.950;2024-02-23T00:11:25;1.87;;;1.20;;
11763;SDS011;5939;56.522;14.950;2024-02-23T00:13:53;1.27;;;1.17;;
11763;SDS011;5939;56.522;14.950;2024-02-23T00:16:18;1.53;;;1.20;;
11763;SDS011;5939;56.522;14.950;2024-02-23T00:18:44;2.47;;;1.50;;
11763;SDS011;5939;56.522;14.950;2024-02-23T00:21:10;1.70;;;1.60;;
11763;SDS011;5939;56.522;14.950;2024-02-23T00:23:36;1.70;;;1.50;;
11763;SDS011;5939;56.522;14.950;2024-02-23T00:26:01;1.60;;;1.50;;
11763;SDS011;5939;56.522;14.950;2024-02-23T00:28:27;1.93;;;1.43;;
11763;SDS011;5939;56.522;14.950;2024-02-23T00:30:53;1.87;;;1.60;;
11763;SDS011;5939;56.522;14.950;2024-02-23T00:33:18;1.73;;;1.63;;
11763;SDS011;5939;56.522;14.950;2024-02-23T00:35:44;2.17;;;1.87;;
11763;SDS011;5939;56.522;14.950;2024-02-23T00:38:10;2.17;;;1.90;;
11763;SDS011;5939;56.522;14.950;2024-02-23T00:40:36;2.57;;;2.30;;
11763;SDS011;5939;56.522;14.950;2024-02-23T00:43:02;2.17;;;1.80;;
11763;SDS011;5939;56.522;14.950;2024-02-23T00:45:28;2.20;;;1.87;;
11763;SDS011;5939;56.522;14.950;2024-02-23T00:47:54;3.00;;;2.40;;
11763;SDS011;5939;56.522;14.950;2024-02-23T00:50:19;2.00;;;1.73;;
11763;SDS011;5939;56.522;14.950;2024-02-23T00:52:45;2.57;;;2.20;;
11763;SDS011;5939;56.522;14.950;2024-02-23T00:55:11;2.30;;;2.10;;
11763;SDS011;5939;56.522;14.950;2024-02-23T00:57:37;2.33;;;2.03;;
11763;SDS011;5939;56.522;14.950;2024-02-23T01:00:03;2.47;;;2.23;;
11763;SDS011;5939;56.522;14.950;2024-02-23T01:02:34;1.90;;;1.70;;
11763;SDS011;5939;56.522;14.950;2024-02-23T01:05:00;2.67;;;2.27;;
11763;SDS011;5939;56.522;14.950;2024-02-23T01:07:25;3.40;;;2.30;;
11763;SDS011;5939;56.522;14.950;2024-02-23T01:09:51;2.10;;;1.90;;
11763;SDS011;5939;56.522;14.950;2024-02-23T01:12:17;2.20;;;1.80;;
11763;SDS011;5939;56.522;14.950;2024-02-23T01:14:42;1.93;;;1.77;;
11763;SDS011;5939;56.522;14.950;2024-02-23T01:17:08;1.97;;;1.77;;
11763;SDS011;5939;56.522;14.950;2024-02-23T01:19:34;1.90;;;1.70;;
11763;SDS011;5939;56.522;14.950;2024-02-23T01:21:59;2.07;;;1.70;;
11763;SDS011;5939;56.522;14.950;2024-02-23T01:24:28;1.63;;;1.53;;
11763;SDS011;5939;56.522;14.950;2024-02-23T01:26:54;1.97;;;1.60;;
11763;SDS011;5939;56.522;14.950;2024-02-23T01:29:21;1.50;;;1.40;;
11763;SDS011;5939;56.522;14.950;2024-02-23T01:31:47;1.50;;;1.40;;
11763;SDS011;5939;56.522;14.950;2024-02-23T01:34:13;1.97;;;1.60;;
11763;SDS011;5939;56.522;14.950;2024-02-23T01:36:39;2.23;;;1.53;;
11763;SDS011;5939;56.522;14.950;2024-02-23T01:39:05;1.43;;;1.33;;
11763;SDS011;5939;56.522;14.950;2024-02-23T01:41:32;1.83;;;1.40;;
11763;SDS011;5939;56.522;14.950;2024-02-23T01:43:58;1.30;;;1.20;;
11763;SDS011;5939;56.522;14.950;2024-02-23T01:46:24;1.40;;;1.30;;
11763;SDS011;5939;56.522;14.950;2024-02-23T01:48:50;1.47;;;1.37;;
11763;SDS011;5939;56.522;14.950;2024-02-23T01:51:15;1.87;;;1.60;;
11763;SDS011;5939;56.522;14.950;2024-02-23T01:53:41;1.50;;;1.20;;
11763;SDS011;5939;56.522;14.950;2024-02-23T01:56:08;1.60;;;1.40;;
11763;SDS011;5939;56.522;14.950;2024-02-23T01:58:36;1.23;;;1.03;;
11763;SDS011;5939;56.522;14.950;2024-02-23T02:01:03;1.30;;;1.20;;
11763;SDS011;5939;56.522;14.950;2024-02-23T02:03:28;1.87;;;1.13;;
11763;SDS011;5939;56.522;14.950;2024-02-23T02:05:55;2.17;;;1.30;;
11763;SDS011;5939;56.522;14.950;2024-02-23T02:08:25;1.30;;;1.20;;
11763;SDS011;5939;56.522;14.950;2024-02-23T02:10:51;1.67;;;1.20;;
11763;SDS011;5939;56.522;14.950;2024-02-23T02:13:17;1.10;;;1.00;;
11763;SDS011;5939;56.522;14.950;2024-02-23T02:15:43;1.20;;;1.10;;
11763;SDS011;5939;56.522;14.950;2024-02-23T02:18:09;1.10;;;1.00;;
11763;SDS011;5939;56.522;14.950;2024-02-23T02:20:35;1.00;;;0.90;;
11763;SDS011;5939;56.522;14.950;2024-02-23T02:23:02;1.20;;;0.90;;
11763;SDS011;5939;56.522;14.950;2024-02-23T02:25:28;0.80;;;0.80;;
11763;SDS011;5939;56.522;14.950;2024-02-23T02:27:54;0.90;;;0.90;;
11763;SDS011;5939;56.522;14.950;2024-02-23T02:30:19;1.13;;;0.90;;
11763;SDS011;5939;56.522;14.950;2024-02-23T02:32:45;0.90;;;0.80;;
11763;SDS011;5939;56.522;14.950;2024-02-23T02:35:11;0.80;;;0.80;;
11763;SDS011;5939;56.522;14.950;2024-02-23T02:37:37;0.83;;;0.80;;
11763;SDS011;5939;56.522;14.950;2024-02-23T02:40:04;0.80;;;0.80;;
11763;SDS011;5939;56.522;14.950;2024-02-23T02:42:30;0.97;;;0.90;;
11763;SDS011;5939;56.522;14.950;2024-02-23T02:44:56;0.80;;;0.73;;
11763;SDS011;5939;56.522;14.950;2024-02-23T02:47:22;0.87;;;0.80;;
11763;SDS011;5939;56.522;14.950;2024-02-23T02:49:48;0.77;;;0.77;;
11763;SDS011;5939;56.522;14.950;2024-02-23T02:52:14;0.80;;;0.80;;
11763;SDS011;5939;56.522;14.950;2024-02-23T02:54:39;0.73;;;0.73;;
11763;SDS011;5939;56.522;14.950;2024-02-23T02:57:05;0.90;;;0.80;;
11763;SDS011;5939;56.522;14.950;2024-02-23T02:59:34;0.83;;;0.83;;
11763;SDS011;5939;56.522;14.950;2024-02-23T03:02:01;0.67;;;0.67;;
11763;SDS011;5939;56.522;14.950;2024-02-23T03:04:26;1.03;;;0.90;;
11763;SDS011;5939;56.522;14.950;2024-02-23T03:06:52;0.90;;;0.90;;
11763;SDS011;5939;56.522;14.950;2024-02-23T03:09:17;0.80;;;0.80;;
11763;SDS011;5939;56.522;14.950;2024-02-23T03:11:43;0.97;;;0.87;;
11763;SDS011;5939;56.522;14.950;2024-02-23T03:14:09;0.60;;;0.60;;
11763;SDS011;5939;56.522;14.950;2024-02-23T03:16:35;1.07;;;0.90;;
11763;SDS011;5939;56.522;14.950;2024-02-23T03:19:02;1.03;;;1.03;;
11763;SDS011;5939;56.522;14.950;2024-02-23T03:21:28;0.73;;;0.73;;
11763;SDS011;5939;56.522;14.950;2024-02-23T03:23:54;0.80;;;0.80;;
11763;SDS011;5939;56.522;14.950;2024-02-23T03:26:19;0.80;;;0.80;;
11763;SDS011;5939;56.522;14.950;2024-02-23T03:28:45;0.87;;;0.80;;
11763;SDS011;5939;56.522;14.950;2024-02-23T03:31:11;0.80;;;0.80;;
11763;SDS011;5939;56.522;14.950;2024-02-23T03:33:37;1.07;;;0.90;;
11763;SDS011;5939;56.522;14.950;2024-02-23T03:36:03;1.10;;;1.00;;
11763;SDS011;5939;56.522;14.950;2024-02-23T03:38:29;0.80;;;0.80;;
11763;SDS011;5939;56.522;14.950;2024-02-23T03:40:55;0.90;;;0.90;;
11763;SDS011;5939;56.522;14.950;2024-02-23T03:43:21;2.43;;;1.03;;
11763;SDS011;5939;56.522;14.950;2024-02-23T03:45:46;0.80;;;0.80;;
11763;SDS011;5939;56.522;14.950;2024-02-23T03:48:12;1.17;;;1.10;;
11763;SDS011;5939;56.522;14.950;2024-02-23T03:50:38;1.10;;;1.00;;
11763;SDS011;5939;56.522;14.950;2024-02-23T03:53:04;1.30;;;1.20;;
11763;SDS011;5939;56.522;14.950;2024-02-23T03:55:30;1.30;;;1.20;;
11763;SDS011;5939;56.522;14.950;2024-02-23T03:57:55;1.50;;;1.20;;
11763;SDS011;5939;56.522;14.950;2024-02-23T04:00:21;1.70;;;1.60;;
11763;SDS011;5939;56.522;14.950;2024-02-23T04:02:48;2.73;;;1.80;;
11763;SDS011;5939;56.522;14.950;2024-02-23T04:05:14;1.97;;;1.70;;
11763;SDS011;5939;56.522;14.950;2024-02-23T04:07:40;2.93;;;2.37;;
11763;SDS011;5939;56.522;14.950;2024-02-23T04:10:06;2.47;;;2.13;;
11763;SDS011;5939;56.522;14.950;2024-02-23T04:12:32;2.53;;;2.33;;
11763;SDS011;5939;56.522;14.950;2024-02-23T04:14:58;3.40;;;2.80;;
11763;SDS011;5939;56.522;14.950;2024-02-23T04:17:23;4.33;;;3.50;;
11763;SDS011;5939;56.522;14.950;2024-02-23T04:19:49;4.73;;;3.80;;
11763;SDS011;5939;56.522;14.950;2024-02-23T04:22:15;5.17;;;3.80;;
11763;SDS011;5939;56.522;14.950;2024-02-23T04:24:40;6.87;;;4.17;;
11763;SDS011;5939;56.522;14.950;2024-02-23T04:27:06;5.30;;;4.10;;
11763;SDS011;5939;56.522;14.950;2024-02-23T04:29:33;5.37;;;4.53;;
11763;SDS011;5939;56.522;14.950;2024-02-23T04:32:02;4.87;;;4.23;;
11763;SDS011;5939;56.522;14.950;2024-02-23T04:34:28;5.67;;;4.27;;
11763;SDS011;5939;56.522;14.950;2024-02-23T04:36:54;4.33;;;3.93;;
11763;SDS011;5939;56.522;14.950;2024-02-23T04:39:20;4.30;;;3.90;;
11763;SDS011;5939;56.522;14.950;2024-02-23T04:41:48;4.87;;;3.97;;
11763;SDS011;5939;56.522;14.950;2024-02-23T04:44:14;4.17;;;3.77;;
11763;SDS011;5939;56.522;14.950;2024-02-23T04:46:40;6.23;;;4.30;;
11763;SDS011;5939;56.522;14.950;2024-02-23T04:49:05;5.70;;;4.37;;
11763;SDS011;5939;56.522;14.950;2024-02-23T04:51:31;6.17;;;4.37;;
11763;SDS011;5939;56.522;14.950;2024-02-23T04:53:56;4.83;;;4.07;;
11763;SDS011;5939;56.522;14.950;2024-02-23T04:56:22;4.60;;;4.10;;
11763;SDS011;5939;56.522;14.950;2024-02-23T04:58:48;5.30;;;4.00;;
11763;SDS011;5939;56.522;14.950;2024-02-23T05:01:14;5.40;;;4.37;;
11763;SDS011;5939;56.522;14.950;2024-02-23T05:03:40;5.57;;;4.27;;
11763;SDS011;5939;56.522;14.950;2024-02-23T05:06:06;5.17;;;4.00;;
11763;SDS011;5939;56.522;14.950;2024-02-23T05:08:31;4.80;;;3.67;;
11763;SDS011;5939;56.522;14.950;2024-02-23T05:10:57;4.97;;;3.90;;
11763;SDS011;5939;56.522;14.950;2024-02-23T05:13:23;4.40;;;3.70;;
11763;SDS011;5939;56.522;14.950;2024-02-23T05:15:49;5.47;;;3.70;;
11763;SDS011;5939;56.522;14.950;2024-02-23T05:18:15;4.30;;;3.43;;
11763;SDS011;5939;56.522;14.950;2024-02-23T05:20:40;5.17;;;4.27;;
11763;SDS011;5939;56.522;14.950;2024-02-23T05:23:06;4.47;;;4.03;;
11763;SDS011;5939;56.522;14.950;2024-02-23T05:25:32;3.97;;;3.53;;
11763;SDS011;5939;56.522;14.950;2024-02-23T05:27:58;5.30;;;3.03;;
11763;SDS011;5939;56.522;14.950;2024-02-23T05:30:24;6.43;;;3.67;;
11763;SDS011;5939;56.522;14.950;2024-02-23T05:32:51;3.37;;;3.07;;
11763;SDS011;5939;56.522;14.950;2024-02-23T05:35:17;4.80;;;3.20;;
11763;SDS011;5939;56.522;14.950;2024-02-23T05:37:43;3.67;;;2.47;;
11763;SDS011;5939;56.522;14.950;2024-02-23T05:40:09;4.57;;;2.73;;
11763;SDS011;5939;56.522;14.950;2024-02-23T05:42:37;2.70;;;2.50;;
11763;SDS011;5939;56.522;14.950;2024-02-23T05:45:03;3.83;;;2.50;;
11763;SDS011;5939;56.522;14.950;2024-02-23T05:47:34;3.27;;;2.33;;
11763;SDS011;5939;56.522;14.950;2024-02-23T05:50:01;2.20;;;2.00;;
11763;SDS011;5939;56.522;14.950;2024-02-23T05:52:33;2.13;;;1.50;;
11763;SDS011;5939;56.522;14.950;2024-02-23T05:55:02;2.20;;;1.70;;
11763;SDS011;5939;56.522;14.950;2024-02-23T05:57:29;1.53;;;1.43;;
11763;SDS011;5939;56.522;14.950;2024-02-23T05:59:55;1.77;;;1.20;;
11763;SDS011;5939;56.522;14.950;2024-02-23T06:02:21;1.33;;;1.20;;
11763;SDS011;5939;56.522;14.950;2024-02-23T06:04:47;1.57;;;1.10;;
11763;SDS011;5939;56.522;14.950;2024-02-23T06:07:13;1.93;;;1.10;;
11763;SDS011;5939;56.522;14.950;2024-02-23T06:09:42;1.30;;;1.10;;
11763;SDS011;5939;56.522;14.950;2024-02-23T06:12:08;3.13;;;1.10;;
11763;SDS011;5939;56.522;14.950;2024-02-23T06:14:34;1.90;;;1.03;;
11763;SDS011;5939;56.522;14.950;2024-02-23T06:17:00;2.50;;;1.00;;
11763;SDS011;5939;56.522;14.950;2024-02-23T06:19:26;1.43;;;0.93;;
11763;SDS011;5939;56.522;14.950;2024-02-23T06:21:52;1.97;;;0.90;;
11763;SDS011;5939;56.522;14.950;2024-02-23T06:24:18;0.83;;;0.83;;
11763;SDS011;5939;56.522;14.950;2024-02-23T06:26:44;1.10;;;1.00;;
11763;SDS011;5939;56.522;14.950;2024-02-23T06:29:11;0.87;;;0.70;;
11763;SDS011;5939;56.522;14.950;2024-02-23T06:31:38;1.07;;;0.80;;
11763;SDS011;5939;56.522;14.950;2024-02-23T06:34:04;1.00;;;0.80;;
11763;SDS011;5939;56.522;14.950;2024-02-23T06:36:31;1.87;;;0.80;;
11763;SDS011;5939;56.522;14.950;2024-02-23T06:38:56;2.43;;;0.80;;
11763;SDS011;5939;56.522;14.950;2024-02-23T06:41:22;0.53;;;0.53;;
11763;SDS011;5939;56.522;14.950;2024-02-23T06:43:48;3.07;;;0.70;;
11763;SDS011;5939;56.522;14.950;2024-02-23T06:46:13;1.40;;;0.80;;
11763;SDS011;5939;56.522;14.950;2024-02-23T06:48:39;2.50;;;0.70;;
11763;SDS011;5939;56.522;14.950;2024-02-23T06:51:05;1.20;;;0.83;;
11763;SDS011;5939;56.522;14.950;2024-02-23T06:53:34;1.50;;;0.90;;
11763;SDS011;5939;56.522;14.950;2024-02-23T06:56:00;2.70;;;0.67;;
11763;SDS011;5939;56.522;14.950;2024-02-23T06:58:27;0.80;;;0.80;;
11763;SDS011;5939;56.522;14.950;2024-02-23T07:00:53;0.70;;;0.70;;
11763;SDS011;5939;56.522;14.950;2024-02-23T07:03:18;2.23;;;0.70;;
11763;SDS011;5939;56.522;14.950;2024-02-23T07:05:44;1.17;;;1.07;;
11763;SDS011;5939;56.522;14.950;2024-02-23T07:08:11;1.23;;;0.70;;
11763;SDS011;5939;56.522;14.950;2024-02-23T07:10:37;2.03;;;0.90;;
11763;SDS011;5939;56.522;14.950;2024-02-23T07:13:03;2.83;;;0.80;;
11763;SDS011;5939;56.522;14.950;2024-02-23T07:15:29;1.63;;;0.60;;
11763;SDS011;5939;56.522;14.950;2024-02-23T07:17:55;1.33;;;0.60;;
11763;SDS011;5939;56.522;14.950;2024-02-23T07:20:21;1.70;;;0.60;;
11763;SDS011;5939;56.522;14.950;2024-02-23T07:22:47;0.67;;;0.60;;
11763;SDS011;5939;56.522;14.950;2024-02-23T07:25:16;0.70;;;0.70;;
11763;SDS011;5939;56.522;14.950;2024-02-23T07:27:43;1.53;;;0.60;;
11763;SDS011;5939;56.522;14.950;2024-02-23T07:30:10;0.90;;;0.63;;
11763;SDS011;5939;56.522;14.950;2024-02-23T07:32:36;1.20;;;0.80;;
11763;SDS011;5939;56.522;14.950;2024-02-23T07:35:02;0.60;;;0.60;;
11763;SDS011;5939;56.522;14.950;2024-02-23T07:37:29;1.47;;;0.70;;
11763;SDS011;5939;56.522;14.950;2024-02-23T07:39:55;0.90;;;0.70;;
11763;SDS011;5939;56.522;14.950;2024-02-23T07:42:20;0.83;;;0.60;;
11763;SDS011;5939;56.522;14.950;2024-02-23T07:44:46;1.83;;;0.67;;
11763;SDS011;5939;56.522;14.950;2024-02-23T07:47:12;2.10;;;0.80;;
11763;SDS011;5939;56.522;14.950;2024-02-23T07:49:38;1.03;;;0.70;;
11763;SDS011;5939;56.522;14.950;2024-02-23T07:52:06;1.73;;;0.50;;
11763;SDS011;5939;56.522;14.950;2024-02-23T07:54:32;2.07;;;0.90;;
11763;SDS011;5939;56.522;14.950;2024-02-23T07:56:58;1.80;;;0.90;;
11763;SDS011;5939;56.522;14.950;2024-02-23T07:59:24;2.40;;;0.80;;
11763;SDS011;5939;56.522;14.950;2024-02-23T08:01:49;0.70;;;0.70;;
11763;SDS011;5939;56.522;14.950;2024-02-23T08:04:15;2.27;;;0.90;;
11763;SDS011;5939;56.522;14.950;2024-02-23T08:06:41;3.00;;;1.00;;
11763;SDS011;5939;56.522;14.950;2024-02-23T08:09:08;3.23;;;1.07;;
11763;SDS011;5939;56.522;14.950;2024-02-23T08:11:34;2.03;;;0.90;;
11763;SDS011;5939;56.522;14.950;2024-02-23T08:14:00;1.40;;;0.90;;
11763;SDS011;5939;56.522;14.950;2024-02-23T08:16:28;2.30;;;0.90;;
11763;SDS011;5939;56.522;14.950;2024-02-23T08:18:54;2.60;;;1.10;;
11763;SDS011;5939;56.522;14.950;2024-02-23T08:21:19;1.73;;;1.10;;
11763;SDS011;5939;56.522;14.950;2024-02-23T08:23:45;1.60;;;0.80;;
11763;SDS011;5939;56.522;14.950;2024-02-23T08:26:11;1.27;;;0.90;;
11763;SDS011;5939;56.522;14.950;2024-02-23T08:28:37;1.07;;;0.70;;
11763;SDS011;5939;56.522;14.950;2024-02-23T08:31:02;1.20;;;0.80;;
11763;SDS011;5939;56.522;14.950;2024-02-23T08:33:28;2.73;;;0.90;;
11763;SDS011;5939;56.522;14.950;2024-02-23T08:35:54;3.10;;;1.07;;
11763;SDS011;5939;56.522;14.950;2024-02-23T08:38:20;2.07;;;1.07;;
11763;SDS011;5939;56.522;14.950;2024-02-23T08:40:45;1.80;;;1.23;;
11763;SDS011;5939;56.522;14.950;2024-02-23T08:43:11;1.60;;;0.97;;
11763;SDS011;5939;56.522;14.950;2024-02-23T08:45:38;4.20;;;1.33;;
11763;SDS011;5939;56.522;14.950;2024-02-23T08:48:04;2.53;;;1.10;;
11763;SDS011;5939;56.522;14.950;2024-02-23T08:50:30;3.47;;;1.10;;
11763;SDS011;5939;56.522;14.950;2024-02-23T08:52:56;3.20;;;1.10;;
11763;SDS011;5939;56.522;14.950;2024-02-23T08:55:21;1.70;;;1.10;;
11763;SDS011;5939;56.522;14.950;2024-02-23T08:57:47;2.10;;;1.10;;
11763;SDS011;5939;56.522;14.950;2024-02-23T09:00:13;1.73;;;1.10;;
11763;SDS011;5939;56.522;14.950;2024-02-23T09:02:39;5.13;;;1.37;;
11763;SDS011;5939;56.522;14.950;2024-02-23T09:05:07;2.87;;;1.17;;
11763;SDS011;5939;56.522;14.950;2024-02-23T09:07:33;2.13;;;1.37;;
11763;SDS011;5939;56.522;14.950;2024-02-23T09:09:59;4.50;;;1.30;;
11763;SDS011;5939;56.522;14.950;2024-02-23T09:12:25;2.23;;;1.17;;
11763;SDS011;5939;56.522;14.950;2024-02-23T09:14:51;3.37;;;1.30;;
11763;SDS011;5939;56.522;14.950;2024-02-23T09:17:17;2.33;;;1.17;;
11763;SDS011;5939;56.522;14.950;2024-02-23T09:19:44;6.07;;;1.30;;
11763;SDS011;5939;56.522;14.950;2024-02-23T09:22:10;2.03;;;1.43;;
11763;SDS011;5939;56.522;14.950;2024-02-23T09:24:39;4.40;;;1.20;;
11763;SDS011;5939;56.522;14.950;2024-02-23T09:27:05;3.00;;;1.10;;
11763;SDS011;5939;56.522;14.950;2024-02-23T09:29:32;2.87;;;1.10;;
11763;SDS011;5939;56.522;14.950;2024-02-23T09:31:58;3.70;;;1.30;;
11763;SDS011;5939;56.522;14.950;2024-02-23T09:34:24;4.20;;;1.40;;
11763;SDS011;5939;56.522;14.950;2024-02-23T09:36:50;2.87;;;1.30;;
11763;SDS011;5939;56.522;14.950;2024-02-23T09:39:15;2.57;;;1.30;;
11763;SDS011;5939;56.522;14.950;2024-02-23T09:41:41;2.40;;;1.37;;
11763;SDS011;5939;56.522;14.950;2024-02-23T09:44:07;3.13;;;1.27;;
11763;SDS011;5939;56.522;14.950;2024-02-23T09:46:34;3.53;;;1.40;;
11763;SDS011;5939;56.522;14.950;2024-02-23T09:49:02;4.27;;;1.23;;
11763;SDS011;5939;56.522;14.950;2024-02-23T09:51:31;4.13;;;1.20;;
11763;SDS011;5939;56.522;14.950;2024-02-23T09:53:58;2.67;;;1.10;;
11763;SDS011;5939;56.522;14.950;2024-02-23T09:56:25;2.40;;;1.20;;
11763;SDS011;5939;56.522;14.950;2024-02-23T09:58:54;3.10;;;1.13;;
11763;SDS011;5939;56.522;14.950;2024-02-23T10:01:27;2.43;;;1.20;;
11763;SDS011;5939;56.522;14.950;2024-02-23T10:03:56;2.40;;;1.00;;
11763;SDS011;5939;56.522;14.950;2024-02-23T10:06:23;2.70;;;1.20;;
11763;SDS011;5939;56.522;14.950;2024-02-23T10:08:52;2.13;;;1.23;;
11763;SDS011;5939;56.522;14.950;2024-02-23T10:11:21;3.03;;;1.23;;
11763;SDS011;5939;56.522;14.950;2024-02-23T10:13:50;2.33;;;1.10;;
11763;SDS011;5939;56.522;14.950;2024-02-23T10:16:17;1.77;;;1.10;;
11763;SDS011;5939;56.522;14.950;2024-02-23T10:18:46;3.70;;;1.33;;
11763;SDS011;5939;56.522;14.950;2024-02-23T10:21:15;3.87;;;1.17;;
11763;SDS011;5939;56.522;14.950;2024-02-23T10:23:42;2.03;;;1.30;;
11763;SDS011;5939;56.522;14.950;2024-02-23T10:26:09;2.87;;;1.10;;
11763;SDS011;5939;56.522;14.950;2024-02-23T10:28:38;3.30;;;1.20;;
11763;SDS011;5939;56.522;14.950;2024-02-23T10:31:04;3.70;;;1.10;;
11763;SDS011;5939;56.522;14.950;2024-02-23T10:33:30;4.23;;;1.30;;
11763;SDS011;5939;56.522;14.950;2024-02-23T10:35:56;3.03;;;1.30;;
11763;SDS011;5939;56.522;14.950;2024-02-23T10:38:28;3.03;;;1.20;;
11763;SDS011;5939;56.522;14.950;2024-02-23T10:40:57;3.33;;;1.23;;
11763;SDS011;5939;56.522;14.950;2024-02-23T10:43:26;2.17;;;1.10;;
11763;SDS011;5939;56.522;14.950;2024-02-23T10:45:58;1.70;;;1.10;;
11763;SDS011;5939;56.522;14.950;2024-02-23T10:48:27;2.23;;;1.40;;
11763;SDS011;5939;56.522;14.950;2024-02-23T10:50:53;3.53;;;1.40;;
11763;SDS011;5939;56.522;14.950;2024-02-23T10:53:21;4.57;;;1.30;;
11763;SDS011;5939;56.522;14.950;2024-02-23T10:55:52;3.97;;;1.23;;
11763;SDS011;5939;56.522;14.950;2024-02-23T10:58:24;5.03;;;1.77;;
11763;SDS011;5939;56.522;14.950;2024-02-23T11:00:50;4.60;;;1.97;;
11763;SDS011;5939;56.522;14.950;2024-02-23T11:03:16;1.80;;;1.20;;
11763;SDS011;5939;56.522;14.950;2024-02-23T11:05:43;3.33;;;1.50;;
11763;SDS011;5939;56.522;14.950;2024-02-23T11:08:13;2.40;;;1.40;;
11763;SDS011;5939;56.522;14.950;2024-02-23T11:10:50;4.23;;;1.53;;
11763;SDS011;5939;56.522;14.950;2024-02-23T11:13:29;4.27;;;1.30;;
11763;SDS011;5939;56.522;14.950;2024-02-23T11:16:01;4.20;;;1.40;;
11763;SDS011;5939;56.522;14.950;2024-02-23T11:18:28;4.10;;;1.20;;
11763;SDS011;5939;56.522;14.950;2024-02-23T11:20:55;5.50;;;1.23;;
11763;SDS011;5939;56.522;14.950;2024-02-23T11:23:22;3.50;;;1.40;;
11763;SDS011;5939;56.522;14.950;2024-02-23T11:28:30;3.83;;;1.10;;
11763;SDS011;5939;56.522;14.950;2024-02-23T11:30:57;2.23;;;1.23;;
11763;SDS011;5939;56.522;14.950;2024-02-23T11:33:27;4.43;;;1.67;;
11763;SDS011;5939;56.522;14.950;2024-02-23T11:36:09;4.50;;;1.70;;
11763;SDS011;5939;56.522;14.950;2024-02-23T11:38:35;3.47;;;1.17;;
11763;SDS011;5939;56.522;14.950;2024-02-23T11:41:03;2.60;;;1.30;;
11763;SDS011;5939;56.522;14.950;2024-02-23T11:43:30;4.27;;;1.27;;
11763;SDS011;5939;56.522;14.950;2024-02-23T11:45:59;5.47;;;1.67;;
11763;SDS011;5939;56.522;14.950;2024-02-23T11:48:25;3.37;;;1.40;;
11763;SDS011;5939;56.522;14.950;2024-02-23T11:50:51;3.70;;;1.13;;
11763;SDS011;5939;56.522;14.950;2024-02-23T11:53:17;6.07;;;1.23;;
11763;SDS011;5939;56.522;14.950;2024-02-23T11:55:44;2.67;;;1.30;;
11763;SDS011;5939;56.522;14.950;2024-02-23T11:58:10;3.43;;;1.20;;
11763;SDS011;5939;56.522;14.950;2024-02-23T12:00:36;6.23;;;2.10;;
11763;SDS011;5939;56.522;14.950;2024-02-23T12:03:02;4.20;;;1.53;;
11763;SDS011;5939;56.522;14.950;2024-02-23T12:05:27;1.83;;;1.40;;
11763;SDS011;5939;56.522;14.950;2024-02-23T12:07:53;2.83;;;1.07;;
11763;SDS011;5939;56.522;14.950;2024-02-23T12:10:19;5.07;;;1.40;;
11763;SDS011;5939;56.522;14.950;2024-02-23T12:12:45;4.13;;;1.30;;
11763;SDS011;5939;56.522;14.950;2024-02-23T12:15:11;5.17;;;1.47;;
11763;SDS011;5939;56.522;14.950;2024-02-23T12:17:36;5.30;;;1.30;;
11763;SDS011;5939;56.522;14.950;2024-02-23T12:20:03;1.77;;;1.40;;
11763;SDS011;5939;56.522;14.950;2024-02-23T12:22:29;3.73;;;1.33;;
11763;SDS011;5939;56.522;14.950;2024-02-23T12:24:58;4.63;;;1.40;;
11763;SDS011;5939;56.522;14.950;2024-02-23T12:27:25;4.83;;;1.20;;
11763;SDS011;5939;56.522;14.950;2024-02-23T12:29:52;3.47;;;1.40;;
11763;SDS011;5939;56.522;14.950;2024-02-23T12:32:19;2.83;;;1.17;;
11763;SDS011;5939;56.522;14.950;2024-02-23T12:34:46;1.33;;;1.20;;
11763;SDS011;5939;56.522;14.950;2024-02-23T12:37:15;4.00;;;1.77;;
11763;SDS011;5939;56.522;14.950;2024-02-23T12:39:42;2.00;;;1.13;;
11763;SDS011;5939;56.522;14.950;2024-02-23T12:42:08;3.00;;;1.37;;
11763;SDS011;5939;56.522;14.950;2024-02-23T12:44:34;2.87;;;1.30;;
11763;SDS011;5939;56.522;14.950;2024-02-23T12:47:00;1.80;;;1.20;;
11763;SDS011;5939;56.522;14.950;2024-02-23T12:49:26;5.50;;;1.40;;
11763;SDS011;5939;56.522;14.950;2024-02-23T12:51:51;1.70;;;1.30;;
11763;SDS011;5939;56.522;14.950;2024-02-23T12:54:17;3.03;;;1.10;;
11763;SDS011;5939;56.522;14.950;2024-02-23T12:56:43;2.90;;;1.20;;
11763;SDS011;5939;56.522;14.950;2024-02-23T12:59:08;3.03;;;1.20;;
11763;SDS011;5939;56.522;14.950;2024-02-23T13:01:35;4.53;;;1.30;;
11763;SDS011;5939;56.522;14.950;2024-02-23T13:04:02;1.60;;;1.03;;
11763;SDS011;5939;56.522;14.950;2024-02-23T13:06:34;2.33;;;1.10;;
11763;SDS011;5939;56.522;14.950;2024-02-23T13:09:04;2.13;;;1.30;;
11763;SDS011;5939;56.522;14.950;2024-02-23T13:11:33;4.53;;;1.53;;
11763;SDS011;5939;56.522;14.950;2024-02-23T13:13:59;1.10;;;1.00;;
11763;SDS011;5939;56.522;14.950;2024-02-23T13:16:25;3.23;;;1.47;;
11763;SDS011;5939;56.522;14.950;2024-02-23T13:18:51;3.87;;;1.40;;
11763;SDS011;5939;56.522;14.950;2024-02-23T13:21:16;1.57;;;1.10;;
11763;SDS011;5939;56.522;14.950;2024-02-23T13:23:42;3.00;;;1.10;;
11763;SDS011;5939;56.522;14.950;2024-02-23T13:26:08;5.93;;;2.20;;
11763;SDS011;5939;56.522;14.950;2024-02-23T13:28:35;1.50;;;1.10;;
11763;SDS011;5939;56.522;14.950;2024-02-23T13:31:02;2.37;;;1.17;;
11763;SDS011;5939;56.522;14.950;2024-02-23T13:33:28;1.87;;;1.17;;
11763;SDS011;5939;56.522;14.950;2024-02-23T13:35:53;2.60;;;1.10;;
11763;SDS011;5939;56.522;14.950;2024-02-23T13:38:20;1.50;;;1.10;;
11763;SDS011;5939;56.522;14.950;2024-02-23T13:40:46;3.60;;;1.40;;
11763;SDS011;5939;56.522;14.950;2024-02-23T13:43:12;4.80;;;1.20;;
11763;SDS011;5939;56.522;14.950;2024-02-23T13:45:50;3.23;;;1.20;;
11763;SDS011;5939;56.522;14.950;2024-02-23T13:48:17;2.73;;;1.10;;
11763;SDS011;5939;56.522;14.950;2024-02-23T13:50:44;2.57;;;1.30;;
11763;SDS011;5939;56.522;14.950;2024-02-23T13:53:11;5.03;;;1.17;;
11763;SDS011;5939;56.522;14.950;2024-02-23T13:55:37;2.37;;;1.10;;
11763;SDS011;5939;56.522;14.950;2024-02-23T13:58:04;2.47;;;1.10;;
11763;SDS011;5939;56.522;14.950;2024-02-23T14:00:29;1.73;;;1.03;;
11763;SDS011;5939;56.522;14.950;2024-02-23T14:02:55;3.90;;;1.37;;
11763;SDS011;5939;56.522;14.950;2024-02-23T14:05:21;3.67;;;1.00;;
11763;SDS011;5939;56.522;14.950;2024-02-23T14:07:50;3.10;;;1.10;;
11763;SDS011;5939;56.522;14.950;2024-02-23T14:10:20;2.07;;;1.03;;
11763;SDS011;5939;56.522;14.950;2024-02-23T14:12:46;2.73;;;1.00;;
11763;SDS011;5939;56.522;14.950;2024-02-23T14:15:12;2.57;;;1.07;;
11763;SDS011;5939;56.522;14.950;2024-02-23T14:17:37;2.00;;;1.27;;
11763;SDS011;5939;56.522;14.950;2024-02-23T14:20:04;1.67;;;1.20;;
11763;SDS011;5939;56.522;14.950;2024-02-23T14:22:31;2.30;;;1.17;;
11763;SDS011;5939;56.522;14.950;2024-02-23T14:24:57;1.53;;;1.13;;
11763;SDS011;5939;56.522;14.950;2024-02-23T14:27:23;1.83;;;1.17;;
11763;SDS011;5939;56.522;14.950;2024-02-23T14:29:49;2.63;;;1.23;;
11763;SDS011;5939;56.522;14.950;2024-02-23T14:32:18;2.30;;;1.23;;
11763;SDS011;5939;56.522;14.950;2024-02-23T14:34:44;2.70;;;0.90;;
11763;SDS011;5939;56.522;14.950;2024-02-23T14:37:10;2.10;;;1.30;;
11763;SDS011;5939;56.522;14.950;2024-02-23T14:39:36;2.40;;;1.00;;
11763;SDS011;5939;56.522;14.950;2024-02-23T14:42:02;1.97;;;1.10;;
11763;SDS011;5939;56.522;14.950;2024-02-23T14:44:28;1.53;;;0.97;;
11763;SDS011;5939;56.522;14.950;2024-02-23T14:46:54;2.33;;;1.00;;